createdAt,value
2023-03-06T00:00:58.041Z,8.20
2023-03-06T00:03:28.245Z,7.00
2023-03-06T00:05:59.135Z,6.80
2023-03-06T00:08:28.273Z,5.40
2023-03-06T00:11:00.908Z,5.10
2023-03-06T00:13:35.240Z,5.90
2023-03-06T00:16:03.741Z,6.30
2023-03-06T00:18:31.926Z,5.80
2023-03-06T00:21:02.375Z,8.50
2023-03-06T00:23:33.251Z,6.00
2023-03-06T00:26:02.070Z,5.50
2023-03-06T00:28:31.663Z,5.30
2023-03-06T00:31:02.756Z,5.20
2023-03-06T00:33:35.288Z,5.50
2023-03-06T00:36:06.940Z,5.40
2023-03-06T00:38:37.254Z,6.30
2023-03-06T00:41:11.911Z,7.00
2023-03-06T00:43:40.708Z,7.60
2023-03-06T00:46:09.394Z,7.70
2023-03-06T00:48:38.305Z,6.30
2023-03-06T00:51:11.430Z,6.80
2023-03-06T00:53:41.812Z,7.70
2023-03-06T00:56:10.523Z,7.30
2023-03-06T00:58:38.885Z,7.40
2023-03-06T01:01:07.107Z,6.70
2023-03-06T01:03:36.066Z,6.10
2023-03-06T01:06:06.431Z,6.10
2023-03-06T01:08:37.107Z,6.20
2023-03-06T01:11:06.028Z,6.50
2023-03-06T01:13:34.291Z,4.90
2023-03-06T01:16:15.077Z,5.90
2023-03-06T01:18:43.758Z,6.50
2023-03-06T01:21:12.092Z,5.40
2023-03-06T01:23:40.980Z,5.40
2023-03-06T01:26:09.486Z,5.20
2023-03-06T01:28:40.878Z,5.10
2023-03-06T01:31:09.221Z,5.70
2023-03-06T01:33:38.409Z,6.00
2023-03-06T01:36:08.287Z,5.10
2023-03-06T01:38:36.429Z,4.80
2023-03-06T01:41:04.959Z,4.90
2023-03-06T01:43:35.436Z,5.90
2023-03-06T01:46:18.800Z,4.70
2023-03-06T01:48:46.960Z,5.40
2023-03-06T01:51:15.370Z,5.30
2023-03-06T01:53:43.770Z,5.80
2023-03-06T01:56:12.040Z,4.80
2023-03-06T01:58:40.760Z,6.40
2023-03-06T02:01:13.530Z,5.50
2023-03-06T02:03:41.806Z,5.10
2023-03-06T02:06:09.896Z,5.30
2023-03-06T02:08:49.950Z,6.10
2023-03-06T02:11:22.595Z,4.40
2023-03-06T02:13:51.787Z,6.30
2023-03-06T02:16:21.894Z,5.90
2023-03-06T02:18:52.190Z,6.00
2023-03-06T02:21:29.416Z,6.00
2023-03-06T02:24:23.437Z,6.30
2023-03-06T02:26:51.697Z,5.30
2023-03-06T02:29:22.642Z,6.50
2023-03-06T02:31:51.035Z,7.00
2023-03-06T02:34:19.046Z,7.60
2023-03-06T02:36:49.925Z,9.70
2023-03-06T02:39:44.278Z,12.90
2023-03-06T02:42:18.718Z,12.10
2023-03-06T02:44:46.919Z,10.20
2023-03-06T02:47:15.016Z,10.40
2023-03-06T02:49:43.078Z,10.40
2023-03-06T02:52:11.730Z,9.90
2023-03-06T02:54:41.010Z,8.80
2023-03-06T02:57:09.897Z,8.00
2023-03-06T02:59:38.249Z,8.30
2023-03-06T03:02:06.469Z,7.90
2023-03-06T03:04:35.853Z,7.80
2023-03-06T03:07:04.082Z,7.60
2023-03-06T03:09:36.984Z,8.10
2023-03-06T03:12:10.366Z,7.60
2023-03-06T03:14:39.956Z,7.50
2023-03-06T03:17:08.334Z,7.90
2023-03-06T03:19:37.814Z,7.70
2023-03-06T03:24:39.100Z,9.10
2023-03-06T03:27:08.784Z,8.10
2023-03-06T03:29:37.174Z,7.20
2023-03-06T03:32:05.613Z,8.70
2023-03-06T03:34:33.838Z,8.20
2023-03-06T03:37:05.226Z,7.50
2023-03-06T03:39:33.675Z,7.10
2023-03-06T03:42:04.556Z,6.50
2023-03-06T03:44:34.289Z,6.70
2023-03-06T03:47:02.709Z,6.20
2023-03-06T03:49:31.797Z,6.40
2023-03-06T03:52:00.244Z,7.20
2023-03-06T03:54:30.540Z,7.60
2023-03-06T03:56:59.255Z,8.30
2023-03-06T03:59:31.995Z,7.70
2023-03-06T04:02:11.634Z,7.00
2023-03-06T04:04:47.287Z,8.70
2023-03-06T04:07:15.451Z,7.30
2023-03-06T04:09:44.656Z,7.60
2023-03-06T04:12:17.018Z,8.70
2023-03-06T04:14:47.414Z,8.40
2023-03-06T04:17:15.700Z,9.50
2023-03-06T04:19:44.181Z,9.50
2023-03-06T04:22:12.727Z,9.00
2023-03-06T04:24:41.153Z,8.30
2023-03-06T04:27:16.726Z,7.60
2023-03-06T04:29:45.077Z,7.30
2023-03-06T04:32:13.183Z,7.90
2023-03-06T04:34:42.183Z,8.70
2023-03-06T04:37:22.059Z,9.50
2023-03-06T04:39:51.227Z,11.00
2023-03-06T04:42:19.243Z,8.80
2023-03-06T04:44:47.785Z,9.30
2023-03-06T04:47:19.036Z,9.20
2023-03-06T04:49:47.599Z,11.70
2023-03-06T04:52:15.712Z,12.80
2023-03-06T04:54:44.258Z,13.10
2023-03-06T04:57:14.250Z,12.00
2023-03-06T04:59:42.676Z,11.20
2023-03-06T05:02:11.166Z,11.00
2023-03-06T05:04:39.769Z,9.50
2023-03-06T05:07:08.501Z,9.70
2023-03-06T05:09:39.332Z,10.50
2023-03-06T05:12:07.804Z,9.30
2023-03-06T05:14:36.252Z,10.30
2023-03-06T05:17:07.693Z,10.00
2023-03-06T05:19:36.393Z,10.10
2023-03-06T05:22:04.996Z,11.30
2023-03-06T05:24:33.116Z,10.20
2023-03-06T05:27:01.175Z,11.10
2023-03-06T05:29:29.504Z,10.10
2023-03-06T05:32:00.499Z,9.60
2023-03-06T05:34:29.484Z,9.70
2023-03-06T05:36:57.826Z,9.80
2023-03-06T05:39:25.838Z,10.90
2023-03-06T05:41:53.977Z,11.30
2023-03-06T05:44:24.076Z,11.90
2023-03-06T05:46:52.199Z,12.10
2023-03-06T05:49:20.351Z,13.70
2023-03-06T05:51:48.600Z,12.10
2023-03-06T05:54:17.559Z,13.00
2023-03-06T05:56:46.297Z,13.00
2023-03-06T05:59:14.369Z,15.80
2023-03-06T06:04:12.754Z,12.40
2023-03-06T06:06:41.035Z,10.80
2023-03-06T06:09:12.275Z,12.30
2023-03-06T06:11:41.718Z,13.00
2023-03-06T06:14:09.789Z,11.30
2023-03-06T06:16:39.223Z,10.80
2023-03-06T06:19:07.402Z,12.60
2023-03-06T06:21:35.580Z,12.50
2023-03-06T06:24:04.201Z,11.60
2023-03-06T06:26:36.538Z,10.10
2023-03-06T06:29:05.523Z,12.40
2023-03-06T06:31:33.630Z,12.60
2023-03-06T06:34:03.113Z,11.30
2023-03-06T06:36:31.276Z,10.90
2023-03-06T06:39:00.573Z,12.20
2023-03-06T06:44:20.897Z,9.00
2023-03-06T06:47:21.210Z,11.50
2023-03-06T06:49:42.991Z,18.10
2023-03-06T06:52:11.081Z,16.10
2023-03-06T06:54:39.102Z,14.70
2023-03-06T06:57:07.188Z,14.70
2023-03-06T06:59:35.299Z,14.30
2023-03-06T07:02:03.718Z,11.90
2023-03-06T07:04:32.017Z,8.70
2023-03-06T07:07:01.701Z,6.60
2023-03-06T07:09:31.424Z,7.40
2023-03-06T07:11:59.858Z,7.30
2023-03-06T07:14:27.890Z,9.30
2023-03-06T07:16:56.479Z,7.40
2023-03-06T07:19:28.080Z,7.70
2023-03-06T07:21:56.156Z,7.70
2023-03-06T07:24:24.823Z,7.10
2023-03-06T07:26:54.839Z,6.10
2023-03-06T07:29:22.884Z,8.10
2023-03-06T07:31:50.883Z,8.20
2023-03-06T07:34:18.923Z,8.80
2023-03-06T07:36:47.139Z,5.80
2023-03-06T07:39:15.190Z,6.90
2023-03-06T07:41:43.236Z,7.00
2023-03-06T07:44:14.577Z,9.00
2023-03-06T07:46:42.906Z,7.00
2023-03-06T07:49:11.004Z,6.90
2023-03-06T07:51:39.553Z,7.80
2023-03-06T07:54:07.848Z,10.40
2023-03-06T07:56:37.404Z,7.70
2023-03-06T07:59:05.814Z,6.50
2023-03-06T08:01:40.544Z,6.60
2023-03-06T08:04:09.352Z,5.30
2023-03-06T08:06:37.704Z,6.20
2023-03-06T08:09:07.112Z,6.70
2023-03-06T08:11:35.252Z,6.90
2023-03-06T08:14:05.041Z,6.60
2023-03-06T08:16:40.446Z,6.00
2023-03-06T08:19:11.460Z,5.40
2023-03-06T08:21:40.155Z,5.70
2023-03-06T08:24:16.707Z,5.10
2023-03-06T08:26:45.153Z,5.20
2023-03-06T08:29:18.752Z,4.80
2023-03-06T08:31:50.436Z,5.00
2023-03-06T08:34:20.766Z,5.10
2023-03-06T08:36:50.441Z,4.80
2023-03-06T08:39:19.296Z,5.60
2023-03-06T08:41:47.378Z,6.10
2023-03-06T08:44:16.147Z,5.90
2023-03-06T08:46:44.454Z,4.40
2023-03-06T08:49:12.625Z,5.10
2023-03-06T08:51:40.725Z,5.40
2023-03-06T08:54:11.262Z,5.40
2023-03-06T08:56:39.784Z,6.90
2023-03-06T08:59:09.529Z,5.80
2023-03-06T09:01:38.000Z,6.90
2023-03-06T09:04:26.125Z,4.00
2023-03-06T09:06:55.608Z,4.90
2023-03-06T09:09:23.841Z,5.80
2023-03-06T09:11:53.739Z,5.80
2023-03-06T09:14:22.136Z,5.60
2023-03-06T09:16:50.794Z,6.10
2023-03-06T09:19:19.039Z,3.70
2023-03-06T09:21:48.554Z,4.90
2023-03-06T09:24:17.956Z,5.60
2023-03-06T09:26:47.954Z,4.90
2023-03-06T09:29:17.652Z,5.10
2023-03-06T09:31:48.531Z,4.50
2023-03-06T09:34:17.088Z,3.90
2023-03-06T09:36:56.771Z,5.10
2023-03-06T09:39:26.186Z,5.40
2023-03-06T09:41:54.577Z,3.30
2023-03-06T09:44:33.268Z,4.30
2023-03-06T09:47:13.741Z,4.70
2023-03-06T09:50:17.189Z,4.00
2023-03-06T09:52:57.399Z,4.10
2023-03-06T09:58:11.317Z,3.60
2023-03-06T10:01:01.059Z,3.00
2023-03-06T10:03:55.018Z,3.60
2023-03-06T10:06:42.071Z,3.90
2023-03-06T10:09:26.445Z,6.30
2023-03-06T10:12:06.772Z,4.90
2023-03-06T10:14:37.992Z,4.50
2023-03-06T10:17:06.591Z,4.30
2023-03-06T10:19:37.979Z,4.40
2023-03-06T10:22:33.151Z,4.40
2023-03-06T10:25:20.317Z,2.80
2023-03-06T10:27:50.418Z,3.00
2023-03-06T10:30:34.394Z,3.00
2023-03-06T10:33:07.581Z,2.50
2023-03-06T10:35:50.007Z,2.90
2023-03-06T10:38:38.347Z,3.00
2023-03-06T10:41:12.540Z,2.50
2023-03-06T10:43:43.996Z,2.90
2023-03-06T10:46:14.929Z,3.40
2023-03-06T10:48:44.285Z,3.20
2023-03-06T10:51:20.570Z,3.40
2023-03-06T10:53:55.995Z,4.20
2023-03-06T10:56:28.740Z,3.40
2023-03-06T10:59:09.193Z,2.80
2023-03-06T11:01:41.561Z,3.70
2023-03-06T11:07:12.290Z,3.10
2023-03-06T11:09:41.097Z,2.20
2023-03-06T11:12:32.506Z,2.80
2023-03-06T11:15:07.564Z,2.70
2023-03-06T11:17:55.305Z,2.20
2023-03-06T11:20:26.927Z,2.70
2023-03-06T11:22:59.969Z,3.60
2023-03-06T11:25:32.946Z,2.80
2023-03-06T11:28:19.156Z,2.90
2023-03-06T11:30:53.788Z,2.50
2023-03-06T11:33:38.936Z,2.90
2023-03-06T11:36:16.339Z,3.10
2023-03-06T11:38:49.309Z,2.30
2023-03-06T11:41:44.945Z,3.40
2023-03-06T11:44:24.718Z,2.90
2023-03-06T11:47:16.297Z,4.50
2023-03-06T11:49:46.894Z,3.30
2023-03-06T11:52:23.214Z,2.30
2023-03-06T11:54:54.544Z,2.00
2023-03-06T11:57:30.896Z,2.40
2023-03-06T12:00:15.911Z,2.70
2023-03-06T12:03:12.760Z,3.20
2023-03-06T12:05:47.480Z,1.90
2023-03-06T12:08:55.418Z,2.80
2023-03-06T12:11:29.690Z,2.40
2023-03-06T12:14:18.049Z,3.20
2023-03-06T12:16:50.139Z,3.30
2023-03-06T12:19:55.652Z,3.10
2023-03-06T12:22:31.171Z,2.90
2023-03-06T12:25:18.193Z,2.10
2023-03-06T12:28:04.774Z,1.90
2023-03-06T12:30:54.792Z,2.30
2023-03-06T12:33:41.967Z,1.90
2023-03-06T12:36:35.188Z,2.10
2023-03-06T12:39:18.105Z,3.80
2023-03-06T12:42:22.617Z,4.50
2023-03-06T12:44:58.145Z,3.00
2023-03-06T12:47:28.172Z,3.30
2023-03-06T12:49:59.447Z,3.40
2023-03-06T12:52:32.143Z,4.40
2023-03-06T12:55:01.642Z,6.30
2023-03-06T12:57:29.865Z,4.60
2023-03-06T12:59:57.919Z,5.30
2023-03-06T13:02:59.983Z,6.10
2023-03-06T13:06:06.383Z,2.60
2023-03-06T13:08:59.534Z,4.50
2023-03-06T13:11:39.459Z,2.40
2023-03-06T13:14:37.554Z,1.80
2023-03-06T13:17:22.974Z,2.00
2023-03-06T13:20:30.257Z,1.10
2023-03-06T13:22:58.790Z,1.60
2023-03-06T13:25:27.109Z,4.70
2023-03-06T13:27:55.567Z,3.90
2023-03-06T13:30:43.788Z,7.10
2023-03-06T13:33:24.804Z,3.60
2023-03-06T13:35:54.950Z,6.20
2023-03-06T13:38:58.376Z,5.60
2023-03-06T13:41:33.936Z,4.30
2023-03-06T13:44:20.591Z,3.00
2023-03-06T13:47:05.725Z,2.90
2023-03-06T13:49:34.244Z,2.10
2023-03-06T13:52:34.656Z,2.20
2023-03-06T13:55:12.482Z,2.00
2023-03-06T13:57:46.612Z,1.60
2023-03-06T14:00:45.896Z,1.30
2023-03-06T14:03:19.431Z,2.70
2023-03-06T14:05:49.592Z,2.20
2023-03-06T14:08:22.830Z,3.20
2023-03-06T14:11:21.209Z,2.20
2023-03-06T14:13:52.403Z,3.60
2023-03-06T14:18:52.759Z,3.40
2023-03-06T14:21:47.057Z,3.60
2023-03-06T14:24:37.304Z,3.80
2023-03-06T14:27:05.795Z,3.00
2023-03-06T14:29:34.577Z,2.30
2023-03-06T14:32:06.019Z,3.80
2023-03-06T14:34:40.198Z,7.20
2023-03-06T14:37:25.322Z,10.00
2023-03-06T14:39:55.418Z,8.00
2023-03-06T14:42:28.006Z,5.20
2023-03-06T14:45:05.559Z,2.80
2023-03-06T14:47:36.573Z,2.40
2023-03-06T14:50:23.391Z,4.30
2023-03-06T14:52:58.357Z,5.40
2023-03-06T14:55:28.338Z,4.60
2023-03-06T14:58:01.529Z,4.70
2023-03-06T15:00:35.893Z,2.80
2023-03-06T15:03:06.017Z,4.40
2023-03-06T15:08:04.031Z,3.90
2023-03-06T15:10:35.517Z,4.80
2023-03-06T15:13:11.498Z,4.80
2023-03-06T15:15:39.668Z,8.90
2023-03-06T15:18:38.971Z,8.90
2023-03-06T15:21:17.606Z,3.60
2023-03-06T15:23:47.361Z,4.60
2023-03-06T15:29:16.837Z,5.50
2023-03-06T15:31:45.571Z,4.80
2023-03-06T15:34:17.452Z,4.50
2023-03-06T15:36:47.509Z,5.70
2023-03-06T15:39:35.471Z,6.40
2023-03-06T15:42:20.386Z,5.20
2023-03-06T15:44:56.660Z,5.10
2023-03-06T15:47:24.687Z,5.10
2023-03-06T15:49:53.385Z,5.70
2023-03-06T15:52:24.501Z,7.90
2023-03-06T15:54:52.803Z,7.40
2023-03-06T15:57:25.327Z,7.90
2023-03-06T15:59:53.723Z,8.60
2023-03-06T16:02:22.838Z,10.00
2023-03-06T16:04:51.463Z,7.30
2023-03-06T16:07:20.799Z,8.50
2023-03-06T16:09:57.015Z,8.00
2023-03-06T16:12:30.920Z,9.10
2023-03-06T16:14:59.354Z,8.70
2023-03-06T16:17:32.876Z,10.80
2023-03-06T16:20:01.230Z,11.40
2023-03-06T16:22:31.829Z,10.30
2023-03-06T16:24:59.950Z,11.10
2023-03-06T16:27:28.279Z,15.40
2023-03-06T16:29:57.635Z,9.10
2023-03-06T16:32:28.700Z,10.90
2023-03-06T16:34:57.016Z,39.00
2023-03-06T16:37:25.337Z,70.90
2023-03-06T16:39:53.815Z,40.80
2023-03-06T16:42:24.471Z,9.90
2023-03-06T16:44:52.737Z,62.60
2023-03-06T16:47:21.917Z,17.30
2023-03-06T16:49:52.193Z,8.40
2023-03-06T16:54:48.304Z,7.70
2023-03-06T16:57:17.986Z,8.60
2023-03-06T16:59:46.070Z,8.60
2023-03-06T17:02:14.295Z,7.80
2023-03-06T17:04:42.458Z,8.20
2023-03-06T17:07:10.740Z,9.10
2023-03-06T17:09:39.960Z,9.00
2023-03-06T17:12:08.508Z,9.80
2023-03-06T17:14:38.511Z,8.80
2023-03-06T17:19:36.301Z,28.70
2023-03-06T17:22:05.320Z,12.50
2023-03-06T17:24:33.448Z,10.00
2023-03-06T17:27:06.954Z,11.30
2023-03-06T17:29:35.447Z,11.00
2023-03-06T17:32:03.843Z,12.40
2023-03-06T17:34:33.004Z,12.90
2023-03-06T17:37:01.686Z,15.50
2023-03-06T17:39:33.989Z,11.70
2023-03-06T17:42:03.454Z,16.70
2023-03-06T17:44:34.576Z,11.90
2023-03-06T17:47:05.086Z,27.40
2023-03-06T17:49:33.207Z,16.50
2023-03-06T17:52:03.018Z,19.40
2023-03-06T17:54:33.285Z,14.70
2023-03-06T17:57:03.642Z,13.00
2023-03-06T17:59:34.298Z,12.40
2023-03-06T18:02:06.479Z,13.70
2023-03-06T18:04:35.616Z,14.00
2023-03-06T18:07:04.010Z,14.90
2023-03-06T18:09:35.031Z,13.90
2023-03-06T18:12:03.876Z,14.70
2023-03-06T18:14:32.215Z,14.60
2023-03-06T18:17:00.755Z,14.50
2023-03-06T18:19:29.602Z,15.00
2023-03-06T18:21:57.680Z,13.90
2023-03-06T18:24:29.329Z,18.80
2023-03-06T18:26:57.672Z,15.40
2023-03-06T18:29:27.017Z,15.80
2023-03-06T18:31:56.943Z,16.10
2023-03-06T18:34:25.339Z,17.80
2023-03-06T18:36:58.877Z,23.70
2023-03-06T18:39:26.968Z,18.40
2023-03-06T18:41:58.657Z,18.80
2023-03-06T18:44:27.531Z,18.60
2023-03-06T18:46:55.726Z,17.60
2023-03-06T18:49:24.160Z,15.50
2023-03-06T18:51:54.795Z,14.80
2023-03-06T18:54:25.458Z,21.50
2023-03-06T18:56:53.668Z,20.60
2023-03-06T18:59:41.567Z,17.90
2023-03-06T19:02:10.965Z,16.60
2023-03-06T19:04:39.123Z,16.50
2023-03-06T19:07:07.587Z,15.50
2023-03-06T19:09:35.747Z,18.40
2023-03-06T19:12:04.381Z,16.90
2023-03-06T19:14:33.914Z,19.30
2023-03-06T19:17:04.771Z,18.00
2023-03-06T19:19:35.353Z,19.80
2023-03-06T19:22:03.363Z,17.70
2023-03-06T19:24:35.297Z,17.20
2023-03-06T19:27:04.857Z,19.00
2023-03-06T19:29:33.610Z,21.40
2023-03-06T19:32:03.585Z,18.50
2023-03-06T19:34:35.619Z,18.80
2023-03-06T19:37:03.759Z,17.60
2023-03-06T19:39:33.476Z,18.00
2023-03-06T19:42:04.743Z,18.50
2023-03-06T19:44:34.926Z,17.90
2023-03-06T19:47:05.575Z,17.40
2023-03-06T19:52:04.737Z,18.40
2023-03-06T19:54:33.902Z,18.40
2023-03-06T19:57:02.243Z,19.10
2023-03-06T19:59:34.857Z,15.60
2023-03-06T20:02:07.016Z,16.90
2023-03-06T20:04:35.168Z,17.50
2023-03-06T20:07:05.067Z,16.90
2023-03-06T20:09:35.304Z,19.10
2023-03-06T20:12:05.553Z,16.40
2023-03-06T20:14:35.944Z,16.40
2023-03-06T20:17:04.363Z,17.00
2023-03-06T20:19:35.716Z,18.50
2023-03-06T20:22:08.549Z,16.50
2023-03-06T20:24:42.037Z,18.00
2023-03-06T20:27:17.282Z,15.10
2023-03-06T20:29:59.010Z,17.50
2023-03-06T20:32:27.322Z,15.50
2023-03-06T20:34:55.541Z,16.50
2023-03-06T20:37:25.999Z,18.40
2023-03-06T20:42:51.773Z,17.90
2023-03-06T20:45:20.049Z,19.40
2023-03-06T20:47:50.974Z,17.80
2023-03-06T20:50:19.147Z,16.70
2023-03-06T20:52:47.963Z,17.20
2023-03-06T20:55:16.727Z,17.80
2023-03-06T20:57:45.096Z,15.60
2023-03-06T21:00:14.134Z,16.50
2023-03-06T21:03:02.259Z,16.30
2023-03-06T21:05:32.848Z,15.00
2023-03-06T21:08:01.992Z,17.80
2023-03-06T21:10:31.200Z,18.60
2023-03-06T21:13:00.603Z,19.40
2023-03-06T21:15:30.151Z,19.10
2023-03-06T21:17:58.466Z,19.40
2023-03-06T21:20:26.561Z,20.80
2023-03-06T21:22:56.268Z,20.90
2023-03-06T21:25:24.578Z,21.50
2023-03-06T21:27:52.898Z,22.90
2023-03-06T21:30:21.486Z,27.50
2023-03-06T21:32:51.081Z,24.00
2023-03-06T21:35:19.751Z,23.80
2023-03-06T21:37:50.193Z,25.60
2023-03-06T21:40:18.759Z,19.20
2023-03-06T21:42:46.825Z,17.20
2023-03-06T21:45:14.974Z,18.10
2023-03-06T21:47:48.375Z,20.40
2023-03-06T21:50:18.276Z,18.90
2023-03-06T21:52:49.969Z,19.90
2023-03-06T21:55:18.546Z,20.50
2023-03-06T21:57:51.177Z,18.50
2023-03-06T22:00:20.189Z,16.30
2023-03-06T22:02:50.155Z,17.00
2023-03-06T22:05:18.734Z,17.60
2023-03-06T22:07:48.111Z,18.70
2023-03-06T22:10:16.586Z,19.90
2023-03-06T22:12:48.002Z,19.70
2023-03-06T22:15:16.688Z,18.80
2023-03-06T22:17:47.834Z,19.30
2023-03-06T22:20:19.211Z,16.70
2023-03-06T22:22:50.530Z,22.70
2023-03-06T22:25:18.898Z,24.60
2023-03-06T22:27:46.876Z,18.80
2023-03-06T22:30:15.545Z,21.00
2023-03-06T22:32:43.900Z,24.40
2023-03-06T22:35:14.950Z,25.70
2023-03-06T22:37:44.251Z,22.70
2023-03-06T22:40:13.833Z,17.00
2023-03-06T22:42:42.580Z,21.00
2023-03-06T22:45:12.554Z,20.00
2023-03-06T22:47:43.484Z,23.20
2023-03-06T22:50:12.016Z,16.90
2023-03-06T22:52:40.178Z,17.20
2023-03-06T22:55:10.265Z,17.20
2023-03-06T22:57:38.719Z,15.90
2023-03-06T23:00:08.192Z,17.60
2023-03-06T23:02:38.699Z,17.10
2023-03-06T23:05:07.482Z,17.20
2023-03-06T23:07:37.492Z,17.10
2023-03-06T23:10:07.030Z,16.80
2023-03-06T23:12:54.099Z,16.30
2023-03-06T23:15:40.832Z,16.60
2023-03-06T23:18:30.832Z,16.00
2023-03-06T23:21:18.226Z,17.40
2023-03-06T23:24:06.627Z,17.90
2023-03-06T23:26:35.796Z,18.80
2023-03-06T23:29:04.496Z,19.10
2023-03-06T23:31:33.535Z,17.40
2023-03-06T23:34:02.360Z,18.00
2023-03-06T23:36:30.952Z,18.80
2023-03-06T23:38:59.414Z,18.90
2023-03-06T23:41:29.778Z,20.40
2023-03-06T23:43:58.476Z,18.80
2023-03-06T23:46:26.560Z,18.50
2023-03-06T23:48:54.903Z,18.30
2023-03-06T23:51:23.664Z,18.70
2023-03-06T23:53:56.614Z,18.00
2023-03-06T23:56:25.589Z,18.40
2023-03-06T23:58:54.819Z,17.50
